Time;durP1;ratioP1;P1;durP2;ratioP2;P2;SDS_P1;SDS_P2;PMS_P1;PMS_P2;Temp;Humidity;BMP_temperature;BMP_pressure;BME280_temperature;BME280_humidity;BME280_pressure;Samples;Min_cycle;Max_cycle;Signal;HPM_P1;HPM_P2
2022/12/27 00:00:39;;;;;;;2.50;1.13;;;;;;;;;;5060995;28;20118;-73
2022/12/27 00:03:24;;;;;;;1.38;0.95;;;;;;;;;;5052927;28;20439;-79
2022/12/27 00:06:15;;;;;;;3.58;1.25;;;;;;;;;;5042313;28;20028;-72
2022/12/27 00:09:01;;;;;;;2.97;1.40;;;;;;;;;;5050968;28;20135;-71
2022/12/27 00:11:46;;;;;;;1.55;1.00;;;;;;;;;;5054932;28;20083;-72
2022/12/27 00:14:31;;;;;;;2.38;1.83;;;;;;;;;;5032711;28;20052;-70
2022/12/27 00:17:16;;;;;;;3.53;1.33;;;;;;;;;;5049819;28;20040;-71
2022/12/27 00:20:02;;;;;;;3.65;1.20;;;;;;;;;;5056289;28;20082;-71
2022/12/27 00:22:47;;;;;;;2.53;1.15;;;;;;;;;;5053247;28;20024;-67
2022/12/27 00:25:33;;;;;;;3.55;1.00;;;;;;;;;;5055334;28;20033;-67
2022/12/27 00:28:18;;;;;;;3.75;1.20;;;;;;;;;;5042078;28;20086;-69
2022/12/27 00:31:07;;;;;;;3.13;1.33;;;;;;;;;;5059289;28;20065;-69
2022/12/27 00:33:53;;;;;;;1.15;0.90;;;;;;;;;;5061250;28;20040;-69
2022/12/27 00:36:38;;;;;;;3.35;1.25;;;;;;;;;;5052402;28;20029;-69
2022/12/27 00:39:24;;;;;;;2.72;1.30;;;;;;;;;;5041306;28;20032;-68
2022/12/27 00:42:09;;;;;;;3.50;1.05;;;;;;;;;;5052914;28;20108;-78
2022/12/27 00:44:54;;;;;;;1.38;1.10;;;;;;;;;;5054888;28;20036;-74
2022/12/27 00:47:39;;;;;;;2.67;0.95;;;;;;;;;;5055051;28;20390;-75
2022/12/27 00:50:25;;;;;;;2.35;1.10;;;;;;;;;;5056270;28;20028;-75
2022/12/27 00:53:10;;;;;;;3.08;1.20;;;;;;;;;;5055784;28;20033;-74
2022/12/27 00:55:56;;;;;;;2.38;1.08;;;;;;;;;;5055565;28;20155;-73
2022/12/27 00:58:41;;;;;;;1.60;1.08;;;;;;;;;;5055605;28;20288;-70
2022/12/27 01:01:28;;;;;;;2.55;1.20;;;;;;;;;;5047257;28;20058;-69
2022/12/27 01:04:14;;;;;;;1.30;1.00;;;;;;;;;;5057275;28;20071;-64
2022/12/27 01:06:59;;;;;;;3.75;1.65;;;;;;;;;;5051573;28;20064;-68
2022/12/27 01:09:44;;;;;;;2.47;1.25;;;;;;;;;;5036789;28;20051;-64
2022/12/27 01:12:30;;;;;;;2.75;1.10;;;;;;;;;;5039856;28;20052;-67
2022/12/27 01:15:15;;;;;;;2.85;1.10;;;;;;;;;;5046743;28;20024;-68
2022/12/27 01:18:00;;;;;;;3.80;0.90;;;;;;;;;;5053662;28;20056;-79
2022/12/27 01:20:45;;;;;;;5.25;0.85;;;;;;;;;;5056184;28;20041;-67
2022/12/27 01:23:31;;;;;;;2.78;1.10;;;;;;;;;;5056207;28;20441;-69
2022/12/27 01:26:18;;;;;;;2.00;1.27;;;;;;;;;;5040683;28;20028;-68
2022/12/27 01:29:03;;;;;;;3.50;1.40;;;;;;;;;;5056684;28;20391;-67
2022/12/27 01:31:48;;;;;;;3.30;0.85;;;;;;;;;;5053993;28;20090;-67
2022/12/27 01:34:34;;;;;;;1.95;0.95;;;;;;;;;;5042127;28;20143;-70
2022/12/27 01:37:19;;;;;;;2.60;0.90;;;;;;;;;;5054070;28;20031;-67
2022/12/27 01:40:04;;;;;;;6.57;1.83;;;;;;;;;;5055951;28;20037;-79
2022/12/27 01:42:54;;;;;;;2.67;1.10;;;;;;;;;;5049538;28;20039;-79
2022/12/27 01:45:39;;;;;;;9.45;1.10;;;;;;;;;;5049721;28;20047;-78
2022/12/27 01:48:24;;;;;;;4.13;1.60;;;;;;;;;;5053070;28;20046;-79
2022/12/27 01:51:10;;;;;;;8.70;1.13;;;;;;;;;;5055810;28;20047;-78
2022/12/27 01:53:55;;;;;;;2.63;1.00;;;;;;;;;;5050210;28;20040;-66
2022/12/27 01:56:40;;;;;;;3.53;1.17;;;;;;;;;;5055657;28;20047;-67
2022/12/27 01:59:26;;;;;;;2.90;0.93;;;;;;;;;;5048252;28;20041;-66
2022/12/27 02:02:11;;;;;;;1.73;0.98;;;;;;;;;;5052016;28;20419;-69
2022/12/27 02:04:56;;;;;;;3.70;1.10;;;;;;;;;;5055318;28;20541;-68
2022/12/27 02:07:54;;;;;;;1.88;1.17;;;;;;;;;;5054198;28;20047;-68
2022/12/27 02:10:40;;;;;;;2.53;1.05;;;;;;;;;;5050009;28;20025;-66
2022/12/27 02:13:25;;;;;;;3.58;0.95;;;;;;;;;;5054936;28;20068;-73
2022/12/27 02:16:12;;;;;;;3.25;1.77;;;;;;;;;;5040823;28;20032;-66
2022/12/27 02:18:57;;;;;;;3.70;0.98;;;;;;;;;;5054567;28;20119;-68
2022/12/27 02:22:06;;;;;;;0.90;0.80;;;;;;;;;;5054843;28;20556;-66
2022/12/27 02:25:06;;;;;;;1.15;0.82;;;;;;;;;;5027070;28;20498;-69
2022/12/27 02:28:09;;;;;;;3.35;0.93;;;;;;;;;;5041679;28;20032;-68
2022/12/27 02:30:57;;;;;;;3.13;1.38;;;;;;;;;;5055210;28;20029;-78
2022/12/27 02:33:44;;;;;;;4.45;0.98;;;;;;;;;;5053145;28;20040;-72
2022/12/27 02:36:32;;;;;;;1.95;0.93;;;;;;;;;;5041518;28;20040;-72
2022/12/27 02:39:18;;;;;;;5.57;1.30;;;;;;;;;;5046288;28;20035;-72
2022/12/27 02:55:05;;;;;;;3.17;1.42;;;;;;;;;;5021914;28;20080;-71
2022/12/27 02:57:51;;;;;;;2.53;0.90;;;;;;;;;;5054404;28;20024;-71
2022/12/27 03:04:03;;;;;;;7.80;1.20;;;;;;;;;;5060542;28;20047;-72
2022/12/27 03:06:51;;;;;;;1.83;1.00;;;;;;;;;;5050973;28;20074;-71
2022/12/27 03:16:04;;;;;;;5.80;1.35;;;;;;;;;;5039404;28;20036;-69
2022/12/27 03:18:52;;;;;;;4.00;1.05;;;;;;;;;;5041724;28;20024;-67
2022/12/27 03:33:11;;;;;;;2.35;1.00;;;;;;;;;;5053386;28;20475;-69
2022/12/27 03:40:26;;;;;;;2.55;1.23;;;;;;;;;;5063042;28;20086;-71
2022/12/27 03:43:13;;;;;;;1.85;0.98;;;;;;;;;;5053759;28;20207;-69
2022/12/27 03:49:24;;;;;;;3.90;2.08;;;;;;;;;;5049656;28;20032;-72
2022/12/27 03:52:15;;;;;;;4.95;1.77;;;;;;;;;;5038060;28;20048;-72
2022/12/27 03:55:01;;;;;;;3.72;1.20;;;;;;;;;;5067129;28;20130;-72
2022/12/27 03:57:46;;;;;;;1.00;0.95;;;;;;;;;;5041750;28;20127;-73
2022/12/27 04:00:31;;;;;;;3.17;0.95;;;;;;;;;;5040340;28;20127;-72
2022/12/27 04:03:16;;;;;;;4.75;1.20;;;;;;;;;;5041664;28;20411;-72
2022/12/27 04:06:02;;;;;;;6.32;1.02;;;;;;;;;;5033944;28;20035;-67
2022/12/27 04:36:23;;;;;;;1.10;1.00;;;;;;;;;;5056693;28;20033;-71
2022/12/27 04:39:08;;;;;;;2.65;1.08;;;;;;;;;;5063458;28;20040;-73
2022/12/27 04:57:19;;;;;;;2.40;1.05;;;;;;;;;;5039879;28;20033;-81
2022/12/27 05:03:10;;;;;;;6.85;1.17;;;;;;;;;;5048634;28;20044;-76
2022/12/27 05:05:55;;;;;;;2.50;1.23;;;;;;;;;;5056415;28;20033;-75
2022/12/27 05:14:48;;;;;;;5.93;1.05;;;;;;;;;;5053258;28;20496;-74
2022/12/27 05:17:33;;;;;;;4.35;1.42;;;;;;;;;;5041812;28;20352;-71
2022/12/27 05:20:18;;;;;;;3.35;1.40;;;;;;;;;;5069954;28;20032;-71
2022/12/27 05:26:07;;;;;;;2.38;1.20;;;;;;;;;;5059556;28;20169;-74
2022/12/27 05:28:54;;;;;;;2.13;1.15;;;;;;;;;;5057953;28;20033;-72
2022/12/27 05:31:39;;;;;;;2.13;1.00;;;;;;;;;;5043143;28;20037;-72
2022/12/27 05:34:24;;;;;;;2.13;1.00;;;;;;;;;;5045232;28;20608;-72
2022/12/27 05:37:09;;;;;;;5.97;1.67;;;;;;;;;;5056327;28;20013;-72
2022/12/27 05:39:55;;;;;;;3.80;1.40;;;;;;;;;;5057990;28;20361;-71
2022/12/27 05:42:40;;;;;;;1.98;1.25;;;;;;;;;;5043518;28;20056;-72
2022/12/27 05:45:25;;;;;;;1.73;1.27;;;;;;;;;;5055466;28;20032;-71
2022/12/27 05:48:11;;;;;;;3.30;1.55;;;;;;;;;;5055941;28;20071;-72
2022/12/27 05:50:56;;;;;;;2.05;1.20;;;;;;;;;;5055789;28;20033;-72
2022/12/27 05:53:41;;;;;;;3.50;1.33;;;;;;;;;;5055336;28;20036;-76
2022/12/27 05:56:26;;;;;;;4.15;1.13;;;;;;;;;;5062626;28;20032;-72
2022/12/27 05:59:12;;;;;;;2.05;1.63;;;;;;;;;;5050519;28;20063;-71
2022/12/27 06:01:57;;;;;;;4.60;1.67;;;;;;;;;;5037393;28;20191;-71
2022/12/27 06:04:42;;;;;;;3.13;1.08;;;;;;;;;;5052358;28;20090;-72
2022/12/27 06:07:27;;;;;;;2.08;1.52;;;;;;;;;;5031009;28;20052;-74
2022/12/27 06:10:12;;;;;;;3.63;1.17;;;;;;;;;;5060195;28;20058;-73
2022/12/27 06:12:58;;;;;;;3.05;1.60;;;;;;;;;;5055313;28;20372;-73
2022/12/27 06:15:44;;;;;;;4.22;1.73;;;;;;;;;;5056201;28;20071;-72
2022/12/27 06:18:30;;;;;;;2.95;1.50;;;;;;;;;;5049822;28;20037;-73
2022/12/27 06:21:17;;;;;;;1.83;1.35;;;;;;;;;;5064879;28;20093;-72
2022/12/27 06:24:02;;;;;;;3.05;1.60;;;;;;;;;;5055874;28;20052;-72
2022/12/27 06:26:47;;;;;;;3.80;1.42;;;;;;;;;;5064202;28;20418;-74
2022/12/27 06:29:33;;;;;;;5.05;1.90;;;;;;;;;;5041081;28;20032;-72
2022/12/27 06:32:18;;;;;;;3.60;1.77;;;;;;;;;;5054820;28;20072;-80
2022/12/27 06:35:03;;;;;;;2.97;1.45;;;;;;;;;;5055450;28;20039;-79
2022/12/27 06:37:49;;;;;;;2.10;1.33;;;;;;;;;;5059747;28;20024;-79
2022/12/27 06:40:34;;;;;;;2.88;1.70;;;;;;;;;;5054895;28;20043;-81
2022/12/27 06:43:19;;;;;;;2.58;1.55;;;;;;;;;;5040824;28;20473;-80
2022/12/27 06:46:06;;;;;;;3.97;1.50;;;;;;;;;;5065955;28;20064;-79
2022/12/27 06:48:51;;;;;;;2.80;1.33;;;;;;;;;;5045110;28;20028;-68
2022/12/27 06:51:36;;;;;;;5.45;1.60;;;;;;;;;;5063641;28;20105;-71
2022/12/27 06:54:22;;;;;;;4.15;1.77;;;;;;;;;;5049206;28;20044;-71
2022/12/27 06:57:07;;;;;;;5.45;1.58;;;;;;;;;;5066289;28;20514;-74
2022/12/27 06:59:52;;;;;;;5.05;1.50;;;;;;;;;;5039093;28;20029;-73
2022/12/27 07:02:38;;;;;;;3.15;1.40;;;;;;;;;;5034259;28;20040;-72
2022/12/27 07:05:23;;;;;;;3.15;1.60;;;;;;;;;;5059991;28;20399;-74
2022/12/27 07:08:08;;;;;;;3.58;2.20;;;;;;;;;;5056888;28;20039;-79
2022/12/27 07:10:58;;;;;;;5.90;1.80;;;;;;;;;;5072829;28;20065;-72
2022/12/27 07:13:44;;;;;;;2.58;1.70;;;;;;;;;;5074491;28;20239;-71
2022/12/27 07:16:29;;;;;;;3.40;1.80;;;;;;;;;;5071729;28;20062;-72
2022/12/27 07:19:15;;;;;;;2.28;1.50;;;;;;;;;;5069956;28;20067;-72
2022/12/27 07:22:00;;;;;;;4.88;1.45;;;;;;;;;;5052681;28;20454;-72
2022/12/27 07:24:45;;;;;;;4.13;1.85;;;;;;;;;;5034702;28;20029;-73
2022/12/27 07:27:34;;;;;;;5.07;1.50;;;;;;;;;;5040158;28;20040;-68
2022/12/27 07:30:19;;;;;;;2.85;1.73;;;;;;;;;;5046628;28;20557;-68
2022/12/27 07:33:04;;;;;;;6.05;2.10;;;;;;;;;;5038217;28;20037;-67
2022/12/27 07:35:56;;;;;;;6.05;2.40;;;;;;;;;;5054201;28;20502;-67
2022/12/27 07:38:41;;;;;;;4.65;2.67;;;;;;;;;;5045181;28;20049;-67
2022/12/27 07:41:26;;;;;;;2.22;1.40;;;;;;;;;;5050826;28;20120;-68
2022/12/27 07:44:12;;;;;;;4.15;1.50;;;;;;;;;;5034469;28;20043;-67
2022/12/27 07:46:57;;;;;;;6.25;2.13;;;;;;;;;;5056564;28;20064;-67
2022/12/27 07:49:42;;;;;;;3.50;1.67;;;;;;;;;;5058195;28;20079;-67
2022/12/27 07:52:27;;;;;;;3.25;1.77;;;;;;;;;;5042798;28;20134;-69
2022/12/27 07:55:12;;;;;;;5.05;2.13;;;;;;;;;;5033854;28;20139;-66
2022/12/27 07:57:58;;;;;;;7.38;2.03;;;;;;;;;;5034532;28;20037;-66
2022/12/27 08:00:47;;;;;;;7.07;2.10;;;;;;;;;;5041787;28;20055;-66
2022/12/27 08:03:32;;;;;;;2.80;1.60;;;;;;;;;;5040045;28;20032;-73
2022/12/27 08:06:38;;;;;;;3.88;1.95;;;;;;;;;;5050424;28;20513;-77
2022/12/27 08:09:27;;;;;;;2.70;1.70;;;;;;;;;;5034026;28;20052;-74
2022/12/27 08:12:12;;;;;;;10.95;4.88;;;;;;;;;;5051129;28;20029;-75
2022/12/27 08:14:57;;;;;;;10.48;2.88;;;;;;;;;;5033852;28;20052;-75
2022/12/27 08:17:42;;;;;;;2.75;1.75;;;;;;;;;;5057917;28;20044;-76
2022/12/27 08:20:28;;;;;;;11.15;2.35;;;;;;;;;;5035287;28;20048;-76
2022/12/27 08:23:13;;;;;;;5.45;1.77;;;;;;;;;;5043425;28;20399;-66
2022/12/27 08:25:58;;;;;;;5.15;1.95;;;;;;;;;;5039731;28;20024;-67
2022/12/27 08:28:44;;;;;;;5.05;1.60;;;;;;;;;;5033539;28;20033;-66
2022/12/27 08:31:29;;;;;;;3.88;2.40;;;;;;;;;;5037292;28;20040;-67
2022/12/27 08:34:14;;;;;;;6.47;3.03;;;;;;;;;;5033559;28;20336;-67
2022/12/27 08:36:59;;;;;;;9.18;3.03;;;;;;;;;;5046434;28;20036;-68
2022/12/27 08:39:44;;;;;;;4.57;2.45;;;;;;;;;;5036456;28;20047;-67
2022/12/27 08:42:30;;;;;;;4.00;2.10;;;;;;;;;;5042670;28;20041;-72
2022/12/27 08:45:15;;;;;;;3.63;1.70;;;;;;;;;;5056192;28;20060;-71
2022/12/27 08:48:01;;;;;;;6.95;2.20;;;;;;;;;;5039598;28;20053;-72
2022/12/27 08:50:46;;;;;;;4.78;2.42;;;;;;;;;;5036493;28;20087;-75
2022/12/27 08:53:31;;;;;;;6.40;2.88;;;;;;;;;;5022147;28;20442;-72
2022/12/27 08:56:16;;;;;;;4.05;2.45;;;;;;;;;;5044262;28;20141;-74
2022/12/27 08:59:02;;;;;;;4.30;1.95;;;;;;;;;;5033190;28;20067;-68
2022/12/27 09:01:47;;;;;;;4.28;2.20;;;;;;;;;;5046755;28;20039;-68
2022/12/27 09:04:32;;;;;;;5.20;2.67;;;;;;;;;;5041760;28;20033;-69
2022/12/27 09:07:17;;;;;;;5.15;2.40;;;;;;;;;;5047680;28;20077;-69
2022/12/27 09:10:03;;;;;;;8.50;2.35;;;;;;;;;;5036837;28;20119;-68
2022/12/27 09:12:48;;;;;;;4.13;2.13;;;;;;;;;;5044770;28;20171;-68
2022/12/27 09:15:33;;;;;;;3.90;1.75;;;;;;;;;;5036674;28;20040;-72
2022/12/27 09:18:19;;;;;;;2.90;1.83;;;;;;;;;;5023284;28;20037;-70
2022/12/27 09:21:05;;;;;;;6.10;1.75;;;;;;;;;;5041275;28;20029;-68
2022/12/27 09:23:50;;;;;;;2.60;1.52;;;;;;;;;;5044444;28;20440;-69
2022/12/27 09:26:35;;;;;;;6.63;2.08;;;;;;;;;;5049924;28;20040;-71
2022/12/27 09:29:21;;;;;;;2.50;1.52;;;;;;;;;;5046091;28;20082;-70
2022/12/27 09:32:06;;;;;;;5.93;1.80;;;;;;;;;;5046795;28;20036;-69
2022/12/27 09:34:51;;;;;;;3.85;1.75;;;;;;;;;;5046690;28;20059;-68
2022/12/27 09:37:37;;;;;;;2.70;1.77;;;;;;;;;;5048314;28;20570;-70
2022/12/27 09:40:22;;;;;;;3.78;1.70;;;;;;;;;;5036635;28;20484;-70
2022/12/27 09:43:08;;;;;;;3.38;1.92;;;;;;;;;;5038795;28;20037;-70
2022/12/27 09:45:54;;;;;;;3.72;1.10;;;;;;;;;;5036415;28;20291;-68
2022/12/27 09:48:40;;;;;;;2.47;1.50;;;;;;;;;;5044939;28;20549;-69
2022/12/27 09:51:31;;;;;;;2.75;1.55;;;;;;;;;;5043126;28;20058;-68
2022/12/27 09:54:28;;;;;;;4.35;2.08;;;;;;;;;;5036150;28;20045;-72
2022/12/27 09:57:16;;;;;;;6.60;1.88;;;;;;;;;;5042167;28;20033;-73
2022/12/27 10:00:05;;;;;;;6.60;1.65;;;;;;;;;;5041229;28;20533;-72
2022/12/27 10:02:51;;;;;;;3.30;1.88;;;;;;;;;;5043316;28;20040;-71
2022/12/27 10:05:38;;;;;;;7.20;1.77;;;;;;;;;;5046424;28;20047;-72
2022/12/27 10:08:44;;;;;;;3.95;1.73;;;;;;;;;;5040410;28;20037;-73
2022/12/27 10:11:54;;;;;;;9.02;2.40;;;;;;;;;;5042268;28;20047;-67
2022/12/27 10:14:39;;;;;;;;;;;;;;;;;;5036191;28;20044;-76
2022/12/27 10:17:27;;;;;;;6.38;2.30;;;;;;;;;;5049644;28;19917;-75
2022/12/27 10:20:32;;;;;;;7.07;2.30;;;;;;;;;;5035902;28;20028;-75
2022/12/27 10:23:26;;;;;;;4.00;1.85;;;;;;;;;;5044853;28;20161;-75
2022/12/27 10:26:13;;;;;;;5.60;1.50;;;;;;;;;;5037268;28;20518;-75
2022/12/27 10:29:17;;;;;;;6.55;2.08;;;;;;;;;;5035764;28;20079;-74
2022/12/27 10:32:03;;;;;;;6.00;1.80;;;;;;;;;;5041915;28;20106;-71
2022/12/27 10:35:00;;;;;;;2.72;1.45;;;;;;;;;;5036652;28;20456;-73
2022/12/27 10:37:46;;;;;;;3.72;1.70;;;;;;;;;;5043957;28;20088;-72
2022/12/27 10:40:38;;;;;;;3.80;1.42;;;;;;;;;;5035482;28;20204;-71
2022/12/27 10:43:29;;;;;;;5.13;1.65;;;;;;;;;;5058962;28;20033;-72
2022/12/27 10:46:24;;;;;;;3.88;1.55;;;;;;;;;;5035332;28;20112;-70
2022/12/27 10:49:21;;;;;;;5.32;1.73;;;;;;;;;;5047993;28;20487;-68
2022/12/27 10:52:07;;;;;;;5.10;2.08;;;;;;;;;;5046015;28;20031;-68
2022/12/27 10:54:56;;;;;;;3.63;1.90;;;;;;;;;;5043401;28;20041;-67
2022/12/27 10:57:42;;;;;;;4.00;1.63;;;;;;;;;;5055791;28;20459;-69
2022/12/27 11:00:27;;;;;;;3.95;1.70;;;;;;;;;;5040797;28;20033;-69
2022/12/27 11:03:17;;;;;;;7.25;1.95;;;;;;;;;;5068173;28;20054;-69
2022/12/27 11:06:03;;;;;;;3.63;1.77;;;;;;;;;;5045011;28;20048;-73
2022/12/27 11:08:49;;;;;;;4.97;2.10;;;;;;;;;;5035933;28;20029;-68
2022/12/27 11:11:35;;;;;;;2.25;1.60;;;;;;;;;;5034751;28;20051;-65
2022/12/27 11:14:21;;;;;;;1.65;1.35;;;;;;;;;;5034842;28;20037;-68
2022/12/27 11:17:09;;;;;;;4.68;1.60;;;;;;;;;;5037111;28;20156;-68
2022/12/27 11:19:56;;;;;;;4.03;1.63;;;;;;;;;;5034916;28;20376;-69
2022/12/27 11:22:43;;;;;;;4.13;1.42;;;;;;;;;;5043490;28;20517;-67
2022/12/27 11:25:29;;;;;;;5.82;1.73;;;;;;;;;;5034467;28;20099;-80
2022/12/27 11:28:36;;;;;;;4.20;1.15;;;;;;;;;;5046614;28;20040;-79
2022/12/27 11:31:27;;;;;;;4.07;1.75;;;;;;;;;;5034522;28;20028;-80
2022/12/27 11:34:15;;;;;;;4.75;1.52;;;;;;;;;;5056561;28;20047;-79
2022/12/27 11:37:04;;;;;;;5.75;1.20;;;;;;;;;;5041457;28;20051;-81
2022/12/27 11:39:53;;;;;;;3.65;1.08;;;;;;;;;;5038904;28;20163;-81
2022/12/27 11:42:39;;;;;;;;;;;;;;;;;;5048982;28;20097;-73
2022/12/27 11:45:37;;;;;;;4.30;2.10;;;;;;;;;;5033913;28;19913;-72
2022/12/27 11:48:34;;;;;;;4.93;1.50;;;;;;;;;;5045877;28;20041;-75
2022/12/27 11:51:38;;;;;;;4.72;1.42;;;;;;;;;;5039215;28;20032;-74
2022/12/27 11:54:39;;;;;;;4.13;1.20;;;;;;;;;;5042265;28;20122;-73
2022/12/27 11:57:54;;;;;;;2.92;1.35;;;;;;;;;;5053936;28;20032;-72
2022/12/27 12:00:59;;;;;;;1.92;1.30;;;;;;;;;;5035751;28;20045;-69
2022/12/27 12:03:47;;;;;;;7.35;1.30;;;;;;;;;;5055164;28;20095;-80
2022/12/27 12:06:43;;;;;;;7.00;1.70;;;;;;;;;;5041738;28;20037;-79
2022/12/27 12:09:41;;;;;;;3.13;1.33;;;;;;;;;;5044010;28;20036;-80
2022/12/27 12:12:45;;;;;;;5.43;1.50;;;;;;;;;;5055269;28;20024;-80
2022/12/27 12:15:33;;;;;;;3.10;1.05;;;;;;;;;;5038796;28;20044;-80
2022/12/27 12:18:47;;;;;;;4.22;1.77;;;;;;;;;;5050781;28;20044;-80
2022/12/27 12:21:39;;;;;;;2.75;1.70;;;;;;;;;;5043940;28;20519;-80
2022/12/27 12:24:48;;;;;;;3.97;1.75;;;;;;;;;;5036609;28;20045;-78
2022/12/27 12:27:45;;;;;;;12.13;1.48;;;;;;;;;;5039041;28;20024;-81
2022/12/27 12:30:36;;;;;;;3.92;1.35;;;;;;;;;;5047060;28;20043;-80
2022/12/27 12:33:40;;;;;;;5.72;1.38;;;;;;;;;;5038897;28;20468;-80
2022/12/27 12:36:45;;;;;;;3.47;1.20;;;;;;;;;;5036083;28;20384;-79
2022/12/27 12:39:45;;;;;;;5.43;1.50;;;;;;;;;;5040857;28;20079;-71
2022/12/27 12:42:36;;;;;;;6.50;1.65;;;;;;;;;;5040912;28;20120;-75
2022/12/27 12:45:45;;;;;;;6.57;1.48;;;;;;;;;;5036628;28;20155;-75
2022/12/27 12:48:30;;;;;;;8.10;2.55;;;;;;;;;;5043954;28;20090;-76
2022/12/27 12:51:21;;;;;;;6.38;1.90;;;;;;;;;;5042841;28;20489;-75
2022/12/27 12:54:25;;;;;;;3.35;1.95;;;;;;;;;;5053000;28;20496;-77
2022/12/27 12:57:29;;;;;;;3.65;1.42;;;;;;;;;;5035988;28;20391;-71
2022/12/27 13:00:24;;;;;;;4.82;1.77;;;;;;;;;;5036984;28;20036;-69
2022/12/27 13:03:09;;;;;;;4.68;1.30;;;;;;;;;;5049567;28;20031;-67
2022/12/27 13:06:10;;;;;;;4.38;1.80;;;;;;;;;;5047436;28;20140;-66
2022/12/27 13:09:13;;;;;;;4.25;1.50;;;;;;;;;;5050991;28;20036;-68
2022/12/27 13:12:15;;;;;;;4.97;1.77;;;;;;;;;;5037121;28;20036;-68
2022/12/27 13:15:19;;;;;;;4.50;1.65;;;;;;;;;;5049602;28;20036;-75
2022/12/27 13:18:24;;;;;;;5.32;1.50;;;;;;;;;;5046559;28;20093;-72
2022/12/27 13:21:20;;;;;;;4.65;1.77;;;;;;;;;;5037087;28;20083;-72
2022/12/27 13:24:15;;;;;;;3.80;1.48;;;;;;;;;;5076377;28;20437;-76
2022/12/27 13:27:24;;;;;;;3.38;1.52;;;;;;;;;;5054395;28;20074;-73
2022/12/27 13:30:12;;;;;;;3.65;1.33;;;;;;;;;;5037072;28;20075;-73
2022/12/27 13:33:17;;;;;;;2.57;1.20;;;;;;;;;;5042616;28;20096;-69
2022/12/27 13:36:12;;;;;;;4.32;1.45;;;;;;;;;;5036443;28;20384;-68
2022/12/27 13:39:16;;;;;;;4.75;1.40;;;;;;;;;;5037199;28;20064;-70
2022/12/27 13:42:28;;;;;;;2.85;1.30;;;;;;;;;;5048625;28;20519;-68
2022/12/27 13:45:32;;;;;;;3.22;1.30;;;;;;;;;;5036776;28;20083;-68
2022/12/27 13:48:36;;;;;;;4.80;1.35;;;;;;;;;;5027949;28;20037;-68
2022/12/27 13:51:30;;;;;;;4.75;1.40;;;;;;;;;;5035380;28;20487;-73
2022/12/27 13:54:34;;;;;;;3.55;1.23;;;;;;;;;;5038157;28;20450;-67
2022/12/27 13:57:50;;;;;;;4.60;1.30;;;;;;;;;;5048571;28;20041;-68
2022/12/27 14:00:58;;;;;;;3.03;1.73;;;;;;;;;;5049748;28;20124;-67
2022/12/27 14:03:52;;;;;;;6.28;1.42;;;;;;;;;;5028185;28;20044;-68
2022/12/27 14:06:44;;;;;;;8.57;2.13;;;;;;;;;;5043442;28;20025;-67
2022/12/27 14:09:37;;;;;;;4.10;1.40;;;;;;;;;;5043023;28;20028;-75
2022/12/27 14:12:29;;;;;;;11.70;1.63;;;;;;;;;;5045533;28;20049;-71
2022/12/27 14:15:17;;;;;;;3.63;1.25;;;;;;;;;;5030289;28;20033;-72
2022/12/27 14:18:20;;;;;;;3.33;1.38;;;;;;;;;;5037508;28;20029;-73
2022/12/27 14:21:34;;;;;;;2.22;1.60;;;;;;;;;;5036171;28;20094;-72
2022/12/27 14:24:28;;;;;;;3.67;1.48;;;;;;;;;;5056841;28;20039;-72
2022/12/27 14:27:32;;;;;;;3.88;1.35;;;;;;;;;;5035847;28;20396;-73
2022/12/27 14:30:21;;;;;;;4.53;1.67;;;;;;;;;;5055253;28;20025;-73
2022/12/27 14:33:26;;;;;;;5.53;1.53;;;;;;;;;;5035991;28;20040;-69
2022/12/27 14:36:30;;;;;;;3.08;1.48;;;;;;;;;;5039596;28;20511;-72
2022/12/27 14:39:19;;;;;;;4.40;1.38;;;;;;;;;;5055330;28;20060;-69
2022/12/27 14:42:07;;;;;;;2.83;1.38;;;;;;;;;;5035681;28;20040;-69
2022/12/27 14:44:52;;;;;;;4.40;1.77;;;;;;;;;;5043808;28;20116;-69
2022/12/27 14:47:47;;;;;;;5.18;1.85;;;;;;;;;;5038947;28;20029;-71
2022/12/27 14:50:41;;;;;;;3.22;1.50;;;;;;;;;;5034896;28;20349;-72
2022/12/27 14:53:47;;;;;;;4.80;1.67;;;;;;;;;;5053382;28;20029;-71
2022/12/27 14:56:44;;;;;;;3.83;1.83;;;;;;;;;;5044403;28;20479;-72
2022/12/27 14:59:35;;;;;;;3.92;2.05;;;;;;;;;;5049130;28;20036;-73
2022/12/27 15:02:20;;;;;;;3.63;1.42;;;;;;;;;;5048355;28;20040;-72
2022/12/27 15:05:24;;;;;;;6.72;2.70;;;;;;;;;;5051912;28;20127;-71
2022/12/27 15:08:28;;;;;;;4.80;1.90;;;;;;;;;;5047384;28;20481;-79
2022/12/27 15:11:34;;;;;;;4.40;1.52;;;;;;;;;;5035193;28;20043;-81
2022/12/27 15:14:19;;;;;;;7.32;1.90;;;;;;;;;;5035502;28;20041;-79
2022/12/27 15:17:20;;;;;;;6.47;1.70;;;;;;;;;;5034956;28;20036;-82
2022/12/27 15:20:25;;;;;;;4.95;1.40;;;;;;;;;;5037060;28;20499;-79
2022/12/27 15:23:29;;;;;;;6.90;1.50;;;;;;;;;;5044201;28;20029;-71
2022/12/27 15:26:23;;;;;;;7.20;4.07;;;;;;;;;;5050406;28;20045;-72
2022/12/27 15:29:12;;;;;;;4.93;1.67;;;;;;;;;;5045557;28;20016;-73
2022/12/27 15:32:14;;;;;;;8.70;1.85;;;;;;;;;;5034875;28;20475;-72
2022/12/27 15:35:09;;;;;;;4.57;2.78;;;;;;;;;;5044276;28;20028;-74
2022/12/27 15:38:01;;;;;;;4.85;1.50;;;;;;;;;;5045141;28;20036;-71
2022/12/27 15:40:52;;;;;;;4.82;2.35;;;;;;;;;;5048805;28;20035;-73
2022/12/27 15:43:45;;;;;;;8.75;1.55;;;;;;;;;;5035631;28;20065;-75
2022/12/27 15:46:54;;;;;;;3.63;1.60;;;;;;;;;;5040881;28;20515;-74
2022/12/27 15:49:42;;;;;;;5.20;1.80;;;;;;;;;;5044212;28;20037;-73
2022/12/27 15:52:39;;;;;;;5.07;2.40;;;;;;;;;;5034271;28;20061;-72
2022/12/27 15:55:25;;;;;;;5.43;2.17;;;;;;;;;;5048082;28;20043;-73
2022/12/27 15:58:10;;;;;;;6.93;2.20;;;;;;;;;;5034175;28;20044;-72
2022/12/27 16:01:14;;;;;;;8.85;1.85;;;;;;;;;;5052443;28;20170;-72
2022/12/27 16:04:19;;;;;;;5.53;1.80;;;;;;;;;;5050101;28;20094;-72
2022/12/27 16:07:24;;;;;;;4.97;2.03;;;;;;;;;;5037686;28;20112;-72
2022/12/27 16:10:28;;;;;;;3.88;1.88;;;;;;;;;;5054796;28;20048;-72
2022/12/27 16:13:32;;;;;;;9.15;2.47;;;;;;;;;;5033658;28;20098;-73
2022/12/27 16:16:27;;;;;;;3.60;1.90;;;;;;;;;;5040352;28;20056;-73
2022/12/27 16:19:16;;;;;;;6.25;1.90;;;;;;;;;;5036578;28;20490;-68
2022/12/27 16:22:02;;;;;;;4.88;2.30;;;;;;;;;;5049478;28;20467;-68
2022/12/27 16:24:47;;;;;;;8.55;2.97;;;;;;;;;;5038077;28;20068;-68
2022/12/27 16:27:32;;;;;;;7.53;3.03;;;;;;;;;;5033919;28;20037;-68
2022/12/27 16:30:36;;;;;;;6.28;2.67;;;;;;;;;;5039092;28;20044;-68
2022/12/27 16:33:25;;;;;;;6.85;2.63;;;;;;;;;;5049917;28;20495;-68
2022/12/27 16:36:10;;;;;;;5.18;2.45;;;;;;;;;;5038048;28;20025;-68
2022/12/27 16:39:04;;;;;;;5.82;2.78;;;;;;;;;;5043655;28;20029;-69
2022/12/27 16:41:52;;;;;;;10.73;3.55;;;;;;;;;;5047622;28;20025;-72
2022/12/27 16:44:51;;;;;;;8.05;2.65;;;;;;;;;;5042339;28;20076;-72
2022/12/27 16:47:36;;;;;;;9.60;2.87;;;;;;;;;;5037469;28;20068;-72
2022/12/27 16:50:41;;;;;;;7.00;2.33;;;;;;;;;;5043253;28;20543;-73
2022/12/27 16:53:29;;;;;;;7.10;2.90;;;;;;;;;;5033677;28;20091;-72
2022/12/27 16:56:14;;;;;;;4.32;2.20;;;;;;;;;;5044443;28;20035;-67
2022/12/27 16:58:59;;;;;;;6.68;2.75;;;;;;;;;;5046223;28;20031;-72
2022/12/27 17:01:44;;;;;;;8.60;2.47;;;;;;;;;;5033709;28;20048;-72
2022/12/27 17:04:48;;;;;;;5.82;2.35;;;;;;;;;;5040788;28;20044;-72
2022/12/27 17:08:07;;;;;;;9.82;3.25;;;;;;;;;;5035453;28;20115;-72
2022/12/27 17:10:54;;;;;;;9.27;3.60;;;;;;;;;;5047241;28;20492;-73
2022/12/27 17:13:40;;;;;;;13.35;3.67;;;;;;;;;;5037052;28;20037;-68
2022/12/27 17:16:27;;;;;;;8.23;3.38;;;;;;;;;;5040844;28;20040;-74
2022/12/27 17:19:18;;;;;;;8.82;3.55;;;;;;;;;;5033649;28;20031;-76
2022/12/27 17:22:05;;;;;;;4.93;2.70;;;;;;;;;;5039821;28;20486;-74
2022/12/27 17:24:54;;;;;;;8.68;3.38;;;;;;;;;;5042738;28;20028;-75
2022/12/27 17:27:55;;;;;;;9.23;4.13;;;;;;;;;;5045678;28;20089;-76
2022/12/27 17:30:59;;;;;;;10.32;4.50;;;;;;;;;;5059620;28;20123;-76
2022/12/27 17:33:50;;;;;;;14.65;5.22;;;;;;;;;;5041856;28;20036;-80
2022/12/27 17:36:35;;;;;;;14.18;4.50;;;;;;;;;;5066534;28;20025;-72
2022/12/27 17:39:35;;;;;;;11.90;5.00;;;;;;;;;;5042828;28;20072;-72
2022/12/27 17:45:45;;;;;;;11.55;4.90;;;;;;;;;;5037539;28;20037;-72
2022/12/27 17:48:31;;;;;;;10.15;3.97;;;;;;;;;;5043016;28;20040;-71
2022/12/27 17:51:24;;;;;;;14.52;4.40;;;;;;;;;;5042025;28;20264;-68
2022/12/27 18:00:32;;;;;;;13.55;4.35;;;;;;;;;;5040246;28;20044;-69
2022/12/27 18:03:17;;;;;;;7.90;3.80;;;;;;;;;;5036263;28;20049;-69
2022/12/27 18:06:02;;;;;;;10.43;4.40;;;;;;;;;;5045952;28;20029;-69
2022/12/27 18:08:48;;;;;;;10.00;4.00;;;;;;;;;;5039594;28;20379;-74
2022/12/27 18:11:33;;;;;;;11.13;4.15;;;;;;;;;;5042705;28;20090;-76
2022/12/27 18:14:19;;;;;;;10.85;5.15;;;;;;;;;;5048530;28;20357;-75
2022/12/27 18:17:04;;;;;;;9.77;4.65;;;;;;;;;;5035725;28;20037;-75
2022/12/27 18:19:51;;;;;;;11.30;4.28;;;;;;;;;;5038295;28;20021;-73
2022/12/27 18:22:37;;;;;;;9.43;4.00;;;;;;;;;;5052920;28;20072;-75
2022/12/27 18:25:24;;;;;;;11.13;4.32;;;;;;;;;;5047037;28;20124;-75
2022/12/27 18:28:15;;;;;;;11.15;4.63;;;;;;;;;;5036566;28;20064;-82
2022/12/27 18:31:19;;;;;;;13.52;5.18;;;;;;;;;;5046413;28;20028;-72
2022/12/27 18:34:06;;;;;;;11.93;5.10;;;;;;;;;;5029758;28;20502;-71
2022/12/27 18:37:11;;;;;;;13.50;4.90;;;;;;;;;;5045351;28;20036;-72
2022/12/27 18:40:00;;;;;;;18.33;5.50;;;;;;;;;;5039050;28;20029;-72
2022/12/27 18:42:50;;;;;;;12.95;5.95;;;;;;;;;;5033635;28;20044;-70
2022/12/27 18:45:35;;;;;;;16.33;5.63;;;;;;;;;;5048985;28;20071;-67
2022/12/27 18:48:20;;;;;;;16.05;5.65;;;;;;;;;;5041268;28;20099;-82